createdAt,value
2024-01-28T00:07:46.054Z,4.53
2024-01-28T00:17:47.907Z,4.57
2024-01-28T00:27:49.805Z,5.50
2024-01-28T00:37:56.156Z,5.50
2024-01-28T00:47:58.310Z,6.82
2024-01-28T00:58:00.836Z,6.38
2024-01-28T01:08:03.056Z,6.03
2024-01-28T01:18:05.080Z,7.03
2024-01-28T01:28:07.681Z,8.18
2024-01-28T01:38:09.537Z,6.72
2024-01-28T01:48:13.260Z,10.90
2024-01-28T01:58:15.568Z,10.90
2024-01-28T02:08:17.276Z,7.47
2024-01-28T02:18:19.055Z,4.65
2024-01-28T02:28:22.550Z,8.27
2024-01-28T02:38:24.222Z,6.27
2024-01-28T02:48:26.177Z,5.45
2024-01-28T02:58:27.997Z,9.20
2024-01-28T03:08:29.659Z,6.35
2024-01-28T03:18:31.750Z,5.07
2024-01-28T03:28:33.536Z,8.20
2024-01-28T03:38:35.244Z,9.32
2024-01-28T03:48:37.057Z,6.30
2024-01-28T03:58:38.816Z,6.25
2024-01-28T04:08:40.625Z,7.00
2024-01-28T04:18:42.405Z,7.45
2024-01-28T04:28:44.328Z,6.93
2024-01-28T04:38:46.165Z,6.85
2024-01-28T04:48:48.190Z,8.23
2024-01-28T04:58:50.621Z,6.45
2024-01-28T05:08:52.488Z,7.10
2024-01-28T05:18:54.461Z,6.95
2024-01-28T05:28:56.637Z,6.72
2024-01-28T05:38:58.808Z,6.85
2024-01-28T05:49:00.694Z,7.72
2024-01-28T05:59:02.738Z,7.63
2024-01-28T06:09:06.198Z,6.80
2024-01-28T06:19:08.031Z,10.13
2024-01-28T06:29:09.989Z,8.07
2024-01-28T06:39:11.707Z,7.95
2024-01-28T06:49:16.766Z,9.63
2024-01-28T06:59:20.654Z,9.48
2024-01-28T07:09:22.815Z,7.32
2024-01-28T07:19:24.699Z,7.60
2024-01-28T07:29:26.367Z,7.85
2024-01-28T07:39:28.165Z,9.40
2024-01-28T07:49:30.101Z,8.32
2024-01-28T07:59:32.286Z,8.05
2024-01-28T08:09:34.678Z,9.30
2024-01-28T08:19:37.628Z,8.27
2024-01-28T08:29:40.024Z,8.85
2024-01-28T08:39:41.923Z,9.73
2024-01-28T08:49:45.345Z,9.13
2024-01-28T08:59:47.122Z,8.67
2024-01-28T09:09:49.050Z,8.00
2024-01-28T09:19:51.135Z,7.00
2024-01-28T09:29:53.089Z,8.38
2024-01-28T09:39:54.997Z,7.95
2024-01-28T09:49:59.364Z,7.32
2024-01-28T10:00:01.631Z,7.57
2024-01-28T10:10:17.522Z,7.38
2024-01-28T10:20:23.563Z,6.45
2024-01-28T10:30:25.442Z,5.72
2024-01-28T10:40:38.232Z,6.20
2024-01-28T10:50:40.276Z,5.78
2024-01-28T11:00:42.490Z,5.85
2024-01-28T11:10:44.822Z,5.60
2024-01-28T11:20:46.654Z,6.03
2024-01-28T11:30:53.388Z,5.38
2024-01-28T11:41:00.777Z,5.35
2024-01-28T11:51:02.862Z,5.80
2024-01-28T12:01:05.069Z,5.05
2024-01-28T12:11:07.735Z,5.28
2024-01-28T12:21:21.715Z,6.00
2024-01-28T12:31:24.049Z,4.68
2024-01-28T12:41:25.896Z,5.00
2024-01-28T12:51:27.779Z,4.65
2024-01-28T13:01:29.835Z,3.75
2024-01-28T13:11:32.408Z,4.00
2024-01-28T13:21:34.306Z,3.97
2024-01-28T13:31:36.517Z,4.28
2024-01-28T13:41:38.117Z,4.18
2024-01-28T13:51:39.897Z,3.90
2024-01-28T14:01:42.234Z,3.80
2024-01-28T14:11:44.455Z,3.60
2024-01-28T14:21:47.309Z,3.70
2024-01-28T14:31:49.050Z,3.45
2024-01-28T14:41:51.996Z,4.00
2024-01-28T14:51:54.908Z,3.60
2024-01-28T15:01:56.583Z,3.08
2024-01-28T15:11:58.399Z,4.40
2024-01-28T15:22:00.214Z,3.55
2024-01-28T15:32:02.081Z,3.45
2024-01-28T15:42:04.443Z,4.28
2024-01-28T15:52:06.568Z,3.25
2024-01-28T16:02:08.674Z,3.22
2024-01-28T16:12:10.637Z,3.40
2024-01-28T16:22:12.472Z,3.53
2024-01-28T16:32:14.369Z,4.20
2024-01-28T16:42:16.420Z,3.78
2024-01-28T16:52:21.483Z,7.80
2024-01-28T17:02:23.570Z,6.05
2024-01-28T17:12:25.299Z,7.05
2024-01-28T17:22:26.967Z,9.07
2024-01-28T17:32:28.711Z,13.02
2024-01-28T17:42:30.526Z,7.55
2024-01-28T17:52:32.419Z,8.57
2024-01-28T18:02:34.345Z,9.73
2024-01-28T18:12:36.594Z,17.67
2024-01-28T18:22:39.300Z,10.93
2024-01-28T18:32:41.147Z,10.82
2024-01-28T18:42:43.549Z,9.27
2024-01-28T18:52:45.964Z,9.82
2024-01-28T19:02:47.738Z,9.63
2024-01-28T19:12:49.591Z,16.30
2024-01-28T19:22:54.220Z,20.85
2024-01-28T19:32:56.100Z,18.77
2024-01-28T19:42:57.883Z,13.18
2024-01-28T19:52:59.871Z,15.93
2024-01-28T20:03:02.054Z,12.63
2024-01-28T20:13:05.904Z,10.45
2024-01-28T20:23:07.760Z,10.77
2024-01-28T20:33:09.651Z,14.85
2024-01-28T20:43:11.452Z,25.95
2024-01-28T20:53:13.379Z,16.98
2024-01-28T21:03:15.234Z,10.70
2024-01-28T21:13:17.030Z,7.40
2024-01-28T21:23:18.689Z,11.50
2024-01-28T21:33:21.157Z,16.00
2024-01-28T21:43:23.106Z,14.80
2024-01-28T21:53:24.705Z,16.80
2024-01-28T22:03:26.471Z,20.00
2024-01-28T22:13:29.049Z,18.38
2024-01-28T22:23:30.987Z,19.13
2024-01-28T22:33:33.156Z,17.83
2024-01-28T22:43:34.979Z,13.95
2024-01-28T22:53:36.853Z,14.45
2024-01-28T23:03:38.787Z,14.90
2024-01-28T23:13:41.510Z,12.07
2024-01-28T23:23:43.307Z,12.40
2024-01-28T23:33:45.215Z,11.52
2024-01-28T23:43:47.261Z,9.50
2024-01-28T23:53:49.239Z,10.63
